sensor_id;sensor_type;location;lat;lon;timestamp;P1;durP1;ratioP1;P2;durP2;ratioP2
14167;SDS011;7163;50.626;12.922;2022-12-29T00:04:57;3.97;;;3.13;;
14167;SDS011;7163;50.626;12.922;2022-12-29T00:09:58;5.33;;;2.87;;
14167;SDS011;7163;50.626;12.922;2022-12-29T00:14:58;5.07;;;3.47;;
14167;SDS011;7163;50.626;12.922;2022-12-29T00:20:17;4.03;;;3.00;;
14167;SDS011;7163;50.626;12.922;2022-12-29T00:25:36;4.87;;;3.20;;
14167;SDS011;7163;50.626;12.922;2022-12-29T00:30:59;4.73;;;3.10;;
14167;SDS011;7163;50.626;12.922;2022-12-29T00:36:20;6.90;;;3.13;;
14167;SDS011;7163;50.626;12.922;2022-12-29T00:41:24;4.73;;;3.20;;
14167;SDS011;7163;50.626;12.922;2022-12-29T00:46:43;4.97;;;3.30;;
14167;SDS011;7163;50.626;12.922;2022-12-29T00:51:43;4.63;;;3.20;;
14167;SDS011;7163;50.626;12.922;2022-12-29T00:56:47;5.50;;;3.30;;
14167;SDS011;7163;50.626;12.922;2022-12-29T01:01:48;4.57;;;3.47;;
14167;SDS011;7163;50.626;12.922;2022-12-29T01:06:56;3.80;;;3.17;;
14167;SDS011;7163;50.626;12.922;2022-12-29T01:11:57;4.67;;;3.60;;
14167;SDS011;7163;50.626;12.922;2022-12-29T01:16:58;6.13;;;3.67;;
14167;SDS011;7163;50.626;12.922;2022-12-29T01:21:59;6.03;;;4.00;;
14167;SDS011;7163;50.626;12.922;2022-12-29T01:27:00;5.10;;;3.93;;
14167;SDS011;7163;50.626;12.922;2022-12-29T01:32:00;7.43;;;3.67;;
14167;SDS011;7163;50.626;12.922;2022-12-29T01:37:00;6.40;;;4.17;;
14167;SDS011;7163;50.626;12.922;2022-12-29T01:42:01;6.53;;;4.13;;
14167;SDS011;7163;50.626;12.922;2022-12-29T01:47:01;7.20;;;4.37;;
14167;SDS011;7163;50.626;12.922;2022-12-29T01:52:06;7.83;;;4.30;;
14167;SDS011;7163;50.626;12.922;2022-12-29T01:57:11;6.97;;;4.23;;
14167;SDS011;7163;50.626;12.922;2022-12-29T02:02:15;7.20;;;4.30;;
14167;SDS011;7163;50.626;12.922;2022-12-29T02:07:19;10.70;;;4.47;;
14167;SDS011;7163;50.626;12.922;2022-12-29T02:12:21;7.27;;;4.33;;
14167;SDS011;7163;50.626;12.922;2022-12-29T02:22:57;6.77;;;4.40;;
14167;SDS011;7163;50.626;12.922;2022-12-29T02:33:38;7.47;;;4.43;;
14167;SDS011;7163;50.626;12.922;2022-12-29T02:39:02;8.70;;;4.70;;
14167;SDS011;7163;50.626;12.922;2022-12-29T02:54:35;8.53;;;4.73;;
14167;SDS011;7163;50.626;12.922;2022-12-29T02:59:42;9.80;;;5.80;;
14167;SDS011;7163;50.626;12.922;2022-12-29T03:04:50;9.10;;;4.30;;
14167;SDS011;7163;50.626;12.922;2022-12-29T03:10:15;10.30;;;4.60;;
14167;SDS011;7163;50.626;12.922;2022-12-29T03:15:42;5.93;;;4.20;;
14167;SDS011;7163;50.626;12.922;2022-12-29T03:21:05;9.37;;;4.00;;
14167;SDS011;7163;50.626;12.922;2022-12-29T03:26:10;7.60;;;3.77;;
14167;SDS011;7163;50.626;12.922;2022-12-29T03:31:12;12.37;;;4.43;;
14167;SDS011;7163;50.626;12.922;2022-12-29T03:36:16;6.30;;;3.53;;
14167;SDS011;7163;50.626;12.922;2022-12-29T03:41:21;9.77;;;3.60;;
14167;SDS011;7163;50.626;12.922;2022-12-29T03:46:25;4.10;;;3.23;;
14167;SDS011;7163;50.626;12.922;2022-12-29T03:51:26;4.87;;;2.97;;
14167;SDS011;7163;50.626;12.922;2022-12-29T03:56:26;5.87;;;3.20;;
14167;SDS011;7163;50.626;12.922;2022-12-29T04:01:27;4.87;;;2.80;;
14167;SDS011;7163;50.626;12.922;2022-12-29T04:06:27;4.93;;;2.80;;
14167;SDS011;7163;50.626;12.922;2022-12-29T04:11:27;3.63;;;2.70;;
14167;SDS011;7163;50.626;12.922;2022-12-29T04:16:28;5.73;;;2.80;;
14167;SDS011;7163;50.626;12.922;2022-12-29T04:21:28;2.67;;;2.37;;
14167;SDS011;7163;50.626;12.922;2022-12-29T04:26:28;5.87;;;2.80;;
14167;SDS011;7163;50.626;12.922;2022-12-29T04:31:29;4.27;;;2.37;;
14167;SDS011;7163;50.626;12.922;2022-12-29T04:36:29;4.13;;;2.50;;
14167;SDS011;7163;50.626;12.922;2022-12-29T04:41:29;3.47;;;2.30;;
14167;SDS011;7163;50.626;12.922;2022-12-29T04:46:30;3.37;;;2.23;;
14167;SDS011;7163;50.626;12.922;2022-12-29T04:51:30;3.40;;;2.40;;
14167;SDS011;7163;50.626;12.922;2022-12-29T04:56:31;3.47;;;2.40;;
14167;SDS011;7163;50.626;12.922;2022-12-29T05:01:31;4.53;;;2.53;;
14167;SDS011;7163;50.626;12.922;2022-12-29T05:06:31;2.50;;;1.97;;
14167;SDS011;7163;50.626;12.922;2022-12-29T05:11:32;5.60;;;2.53;;
14167;SDS011;7163;50.626;12.922;2022-12-29T05:16:32;2.50;;;2.30;;
14167;SDS011;7163;50.626;12.922;2022-12-29T05:21:33;4.87;;;2.43;;
14167;SDS011;7163;50.626;12.922;2022-12-29T05:26:33;5.20;;;2.67;;
14167;SDS011;7163;50.626;12.922;2022-12-29T05:31:33;3.87;;;2.43;;
14167;SDS011;7163;50.626;12.922;2022-12-29T05:36:35;3.10;;;2.70;;
14167;SDS011;7163;50.626;12.922;2022-12-29T05:41:38;4.80;;;2.40;;
14167;SDS011;7163;50.626;12.922;2022-12-29T05:46:38;3.17;;;2.47;;
14167;SDS011;7163;50.626;12.922;2022-12-29T05:51:39;2.83;;;2.00;;
14167;SDS011;7163;50.626;12.922;2022-12-29T05:56:39;2.00;;;1.90;;
14167;SDS011;7163;50.626;12.922;2022-12-29T06:01:40;3.80;;;2.20;;
14167;SDS011;7163;50.626;12.922;2022-12-29T06:06:40;4.20;;;2.10;;
14167;SDS011;7163;50.626;12.922;2022-12-29T06:11:41;2.60;;;2.20;;
14167;SDS011;7163;50.626;12.922;2022-12-29T06:16:42;3.23;;;2.20;;
14167;SDS011;7163;50.626;12.922;2022-12-29T06:21:43;2.17;;;1.90;;
14167;SDS011;7163;50.626;12.922;2022-12-29T06:26:43;4.10;;;3.00;;
14167;SDS011;7163;50.626;12.922;2022-12-29T06:31:44;5.17;;;2.60;;
14167;SDS011;7163;50.626;12.922;2022-12-29T06:36:48;3.70;;;2.90;;
14167;SDS011;7163;50.626;12.922;2022-12-29T06:41:51;4.47;;;2.50;;
14167;SDS011;7163;50.626;12.922;2022-12-29T06:46:52;4.17;;;2.80;;
14167;SDS011;7163;50.626;12.922;2022-12-29T06:51:52;7.43;;;2.90;;
14167;SDS011;7163;50.626;12.922;2022-12-29T06:56:52;3.57;;;2.47;;
14167;SDS011;7163;50.626;12.922;2022-12-29T07:01:53;4.20;;;2.83;;
14167;SDS011;7163;50.626;12.922;2022-12-29T07:06:53;8.67;;;3.70;;
14167;SDS011;7163;50.626;12.922;2022-12-29T07:11:54;6.37;;;3.30;;
14167;SDS011;7163;50.626;12.922;2022-12-29T07:16:54;3.87;;;3.30;;
14167;SDS011;7163;50.626;12.922;2022-12-29T07:21:55;9.20;;;4.17;;
14167;SDS011;7163;50.626;12.922;2022-12-29T07:26:58;3.73;;;3.10;;
14167;SDS011;7163;50.626;12.922;2022-12-29T07:31:58;5.47;;;3.17;;
14167;SDS011;7163;50.626;12.922;2022-12-29T07:36:59;6.07;;;3.60;;
14167;SDS011;7163;50.626;12.922;2022-12-29T07:41:59;8.17;;;3.70;;
14167;SDS011;7163;50.626;12.922;2022-12-29T07:47:00;5.73;;;3.20;;
14167;SDS011;7163;50.626;12.922;2022-12-29T07:52:00;5.90;;;2.80;;
14167;SDS011;7163;50.626;12.922;2022-12-29T07:57:01;4.20;;;2.37;;
14167;SDS011;7163;50.626;12.922;2022-12-29T08:12:52;3.67;;;3.00;;
14167;SDS011;7163;50.626;12.922;2022-12-29T08:17:52;3.77;;;2.90;;
14167;SDS011;7163;50.626;12.922;2022-12-29T08:22:53;3.53;;;2.73;;
14167;SDS011;7163;50.626;12.922;2022-12-29T08:27:53;5.57;;;3.17;;
14167;SDS011;7163;50.626;12.922;2022-12-29T08:32:54;8.13;;;3.60;;
14167;SDS011;7163;50.626;12.922;2022-12-29T08:37:54;5.20;;;3.20;;
14167;SDS011;7163;50.626;12.922;2022-12-29T08:42:54;6.20;;;3.63;;
14167;SDS011;7163;50.626;12.922;2022-12-29T08:47:55;6.57;;;3.70;;
14167;SDS011;7163;50.626;12.922;2022-12-29T08:52:55;5.80;;;2.80;;
14167;SDS011;7163;50.626;12.922;2022-12-29T08:57:56;3.13;;;2.70;;
14167;SDS011;7163;50.626;12.922;2022-12-29T09:13:27;4.13;;;2.80;;
14167;SDS011;7163;50.626;12.922;2022-12-29T09:23:35;5.87;;;2.77;;
14167;SDS011;7163;50.626;12.922;2022-12-29T09:28:38;4.90;;;2.63;;
14167;SDS011;7163;50.626;12.922;2022-12-29T09:33:38;4.30;;;2.70;;
14167;SDS011;7163;50.626;12.922;2022-12-29T09:38:39;5.13;;;2.70;;
14167;SDS011;7163;50.626;12.922;2022-12-29T09:54:30;3.17;;;2.13;;
14167;SDS011;7163;50.626;12.922;2022-12-29T09:59:41;5.50;;;3.40;;
14167;SDS011;7163;50.626;12.922;2022-12-29T10:04:51;4.10;;;2.57;;
14167;SDS011;7163;50.626;12.922;2022-12-29T10:10:02;3.13;;;2.43;;
14167;SDS011;7163;50.626;12.922;2022-12-29T10:25:50;2.47;;;2.20;;
14167;SDS011;7163;50.626;12.922;2022-12-29T10:30:53;4.93;;;2.70;;
14167;SDS011;7163;50.626;12.922;2022-12-29T10:35:54;2.87;;;1.90;;
14167;SDS011;7163;50.626;12.922;2022-12-29T10:40:57;5.07;;;2.50;;
14167;SDS011;7163;50.626;12.922;2022-12-29T10:46:02;6.37;;;3.27;;
14167;SDS011;7163;50.626;12.922;2022-12-29T10:51:05;6.57;;;3.73;;
14167;SDS011;7163;50.626;12.922;2022-12-29T10:56:13;5.80;;;3.27;;
14167;SDS011;7163;50.626;12.922;2022-12-29T11:01:18;9.47;;;5.03;;
14167;SDS011;7163;50.626;12.922;2022-12-29T11:06:26;19.23;;;9.63;;
14167;SDS011;7163;50.626;12.922;2022-12-29T11:11:33;12.87;;;5.57;;
14167;SDS011;7163;50.626;12.922;2022-12-29T11:16:35;5.20;;;2.57;;
14167;SDS011;7163;50.626;12.922;2022-12-29T11:21:37;6.00;;;3.10;;
14167;SDS011;7163;50.626;12.922;2022-12-29T11:26:43;5.20;;;3.00;;
14167;SDS011;7163;50.626;12.922;2022-12-29T11:31:44;4.10;;;2.60;;
14167;SDS011;7163;50.626;12.922;2022-12-29T11:36:46;3.23;;;2.10;;
14167;SDS011;7163;50.626;12.922;2022-12-29T11:41:50;5.97;;;2.77;;
14167;SDS011;7163;50.626;12.922;2022-12-29T11:46:51;3.00;;;2.50;;
14167;SDS011;7163;50.626;12.922;2022-12-29T11:51:53;4.97;;;3.03;;
14167;SDS011;7163;50.626;12.922;2022-12-29T11:56:57;3.20;;;2.33;;
14167;SDS011;7163;50.626;12.922;2022-12-29T12:07:49;4.90;;;3.03;;
14167;SDS011;7163;50.626;12.922;2022-12-29T12:12:56;4.10;;;2.60;;
14167;SDS011;7163;50.626;12.922;2022-12-29T12:23:34;6.13;;;3.00;;
14167;SDS011;7163;50.626;12.922;2022-12-29T12:33:57;5.10;;;2.63;;
14167;SDS011;7163;50.626;12.922;2022-12-29T12:39:06;3.63;;;2.60;;
14167;SDS011;7163;50.626;12.922;2022-12-29T12:44:18;4.03;;;2.33;;
14167;SDS011;7163;50.626;12.922;2022-12-29T12:49:32;10.27;;;2.70;;
14167;SDS011;7163;50.626;12.922;2022-12-29T13:00:14;5.60;;;2.40;;
14167;SDS011;7163;50.626;12.922;2022-12-29T13:15:46;2.93;;;2.27;;
14167;SDS011;7163;50.626;12.922;2022-12-29T13:26:29;4.53;;;3.40;;
14167;SDS011;7163;50.626;12.922;2022-12-29T13:31:45;2.73;;;2.27;;
14167;SDS011;7163;50.626;12.922;2022-12-29T13:36:56;5.00;;;2.30;;
14167;SDS011;7163;50.626;12.922;2022-12-29T13:41:59;2.63;;;2.10;;
14167;SDS011;7163;50.626;12.922;2022-12-29T13:47:04;2.47;;;1.80;;
14167;SDS011;7163;50.626;12.922;2022-12-29T13:52:15;4.00;;;1.90;;
14167;SDS011;7163;50.626;12.922;2022-12-29T14:08:20;2.47;;;2.00;;
14167;SDS011;7163;50.626;12.922;2022-12-29T14:13:24;3.07;;;1.90;;
14167;SDS011;7163;50.626;12.922;2022-12-29T14:18:29;3.17;;;1.90;;
14167;SDS011;7163;50.626;12.922;2022-12-29T14:23:43;2.20;;;1.90;;
14167;SDS011;7163;50.626;12.922;2022-12-29T18:42:03;5.50;;;2.93;;
14167;SDS011;7163;50.626;12.922;2022-12-29T18:47:04;4.83;;;2.03;;
14167;SDS011;7163;50.626;12.922;2022-12-29T18:52:10;3.80;;;1.87;;
14167;SDS011;7163;50.626;12.922;2022-12-29T18:57:12;2.00;;;1.90;;
14167;SDS011;7163;50.626;12.922;2022-12-29T19:02:15;2.70;;;1.70;;
14167;SDS011;7163;50.626;12.922;2022-12-29T19:07:16;3.40;;;1.57;;
14167;SDS011;7163;50.626;12.922;2022-12-29T19:12:16;2.13;;;1.83;;
14167;SDS011;7163;50.626;12.922;2022-12-29T19:17:17;3.30;;;2.10;;
14167;SDS011;7163;50.626;12.922;2022-12-29T19:22:17;2.60;;;2.20;;
14167;SDS011;7163;50.626;12.922;2022-12-29T19:27:17;2.10;;;1.90;;
14167;SDS011;7163;50.626;12.922;2022-12-29T19:32:18;1.70;;;1.60;;
14167;SDS011;7163;50.626;12.922;2022-12-29T19:37:18;4.40;;;1.57;;
14167;SDS011;7163;50.626;12.922;2022-12-29T19:42:19;2.40;;;1.50;;
14167;SDS011;7163;50.626;12.922;2022-12-29T19:47:19;2.63;;;1.73;;
14167;SDS011;7163;50.626;12.922;2022-12-29T20:23:21;3.90;;;1.70;;
